Time;durP1;ratioP1;P1;durP2;ratioP2;P2;SDS_P1;SDS_P2;PMS_P1;PMS_P2;Temp;Humidity;BMP_temperature;BMP_pressure;BME280_temperature;BME280_humidity;BME280_pressure;Samples;Min_cycle;Max_cycle;Signal;HPM_P1;HPM_P2
2021/04/19 00:00:57;;;;;;;10.53;8.50;;;;;;;16.26;54.33;100311.84;2356793;80;25387;-81
2021/04/19 00:04:18;;;;;;;9.30;8.38;;;;;;;16.25;54.45;100300.89;2467626;80;25640;-78
2021/04/19 00:07:50;;;;;;;9.20;8.00;;;;;;;16.23;54.43;100300.91;2459278;80;25624;-80
2021/04/19 00:11:12;;;;;;;9.08;8.18;;;;;;;16.22;54.50;100295.63;2267427;86;25485;-80
2021/04/19 00:14:33;;;;;;;10.55;8.60;;;;;;;16.18;54.52;100291.26;2289860;85;25755;-81
2021/04/19 00:17:55;;;;;;;8.65;7.83;;;;;;;16.15;54.59;100289.94;2289891;85;25847;-79
2021/04/19 00:21:41;;;;;;;;;;;;;;;;;;;;;
2021/04/19 00:40:57;;;;;;;8.68;7.95;;;;;;;15.94;54.85;100275.92;2605186;75;30757;-79
2021/04/19 00:44:46;;;;;;;;;;;;;;;;;;;;;
2021/04/19 00:52:27;;;;;;;8.13;7.40;;;;;;;15.82;54.99;100288.61;2622255;75;31211;-81
2021/04/19 00:56:20;;;;;;;9.33;8.38;;;;;;;15.75;54.94;100298.69;2458850;80;25815;-81
2021/04/19 01:37:56;;;;;;;8.90;8.08;;;;;;;15.14;55.62;100288.45;2498937;78;30944;-82
2021/04/19 01:41:44;;;;;;;9.68;8.65;;;;;;;14.94;55.33;100276.55;2476542;78;25568;-81
2021/04/19 01:46:04;;;;;;;9.73;8.83;;;;;;;14.87;55.84;100270.40;2554579;77;30817;-78
2021/04/19 01:55:21;;;;;;;10.30;8.58;;;;;;;15.00;55.84;100291.89;2479613;79;31246;-79
2021/04/19 01:59:30;;;;;;;10.88;9.80;;;;;;;14.93;55.94;100297.12;2423974;80;25613;-81
2021/04/19 02:04:07;;;;;;;11.15;9.13;;;;;;;14.87;55.88;100300.14;2316297;83;25746;-80
2021/04/19 02:09:19;;;;;;;11.00;9.35;;;;;;;14.86;56.04;100289.66;2418917;79;30143;-81
2021/04/19 02:13:37;;;;;;;10.00;9.13;;;;;;;14.79;56.01;100292.68;2336572;81;26521;-81
2021/04/19 02:17:42;;;;;;;10.25;9.23;;;;;;;14.80;56.13;100286.55;2605088;76;30690;-82
2021/04/19 02:21:44;;;;;;;;;;;;;;;;;;;;;
2021/04/19 02:26:58;;;;;;;;;;;;;;;;;;;;;
2021/04/19 02:31:07;;;;;;;10.80;9.15;;;;;;;14.69;56.18;100282.13;2353353;78;25838;-82
2021/04/19 02:35:17;;;;;;;12.30;11.00;;;;;;;14.62;56.21;100276.84;2203591;87;25898;-79
2021/04/19 03:09:26;;;;;;;11.43;10.23;;;;;;;14.32;56.64;100278.81;2456678;80;25734;-80
2021/04/19 03:13:20;;;;;;;13.08;10.32;;;;;;;14.31;56.76;100279.70;2456787;80;25871;-81
2021/04/19 03:17:31;;;;;;;11.08;9.95;;;;;;;14.29;56.81;100280.55;2454768;80;25566;-81
2021/04/19 03:21:53;;;;;;;;;;;;;;;;;;;;;
2021/04/19 03:26:39;;;;;;;;;;;;;;;;;;;;;
2021/04/19 03:29:55;;;;;;;10.68;9.58;;;;;;;14.24;56.98;100281.84;2349067;83;25703;-79
2021/04/19 03:33:37;;;;;;;12.68;11.03;;;;;;;14.20;57.00;100285.27;2361307;83;25679;-77
2021/04/19 03:48:00;;;;;;;;;;;;;;;;;;;;;
2021/04/19 04:06:41;;;;;;;13.63;12.23;;;;;;;14.16;57.31;100298.80;2605237;76;29154;-82
2021/04/19 04:10:40;;;;;;;13.25;10.68;;;;;;;14.12;57.23;100301.39;2558715;77;25530;-78
2021/04/19 04:14:56;;;;;;;12.90;11.00;;;;;;;14.21;57.30;100300.57;2582064;74;28978;-82
2021/04/19 04:18:42;;;;;;;12.35;11.10;;;;;;;14.17;57.23;100307.53;2552514;75;25638;-81
2021/04/19 04:22:42;;;;;;;12.88;11.35;;;;;;;14.18;57.30;100299.70;2484264;77;25599;-79
2021/04/19 04:26:06;;;;;;;11.68;9.78;;;;;;;14.20;57.32;100308.00;2420767;79;25644;-81
2021/04/19 04:30:36;;;;;;;;;;;;;;;;;;;;;
2021/04/19 04:44:12;;;;;;;14.23;10.43;;;;;;;14.34;57.26;100304.63;2407116;78;25857;-82
2021/04/19 04:48:13;;;;;;;12.78;10.20;;;;;;;14.49;57.26;100295.97;2551562;77;30860;-81
2021/04/19 04:51:43;;;;;;;11.18;9.98;;;;;;;14.50;57.24;100295.13;2420428;81;25699;-82
2021/04/19 04:55:16;;;;;;;12.33;10.38;;;;;;;14.55;57.19;100299.98;2463688;80;25218;-83
2021/04/19 04:58:44;;;;;;;12.58;10.72;;;;;;;14.61;57.24;100322.33;2420441;81;25390;-80
2021/04/19 05:02:07;;;;;;;12.25;11.05;;;;;;;15.01;57.17;100323.83;2412376;80;25292;-81
2021/04/19 05:05:32;;;;;;;11.83;10.63;;;;;;;15.47;56.57;100321.38;2391393;82;25704;-81
2021/04/19 05:08:55;;;;;;;11.88;10.43;;;;;;;15.48;56.11;100317.00;2391330;82;25714;-81
2021/04/19 05:12:17;;;;;;;10.90;9.80;;;;;;;15.47;56.06;100318.75;2391315;82;25601;-81
2021/04/19 05:15:49;;;;;;;12.95;11.20;;;;;;;15.49;55.99;100318.34;2391517;82;25420;-82
2021/04/19 05:19:16;;;;;;;11.68;10.53;;;;;;;15.55;55.98;100320.95;2391108;82;25591;-81
2021/04/19 05:22:43;;;;;;;14.28;10.35;;;;;;;15.62;55.94;100318.34;2297033;84;25628;-81
2021/04/19 05:26:05;;;;;;;11.00;9.90;;;;;;;15.66;55.95;100314.46;2296918;85;25711;-82
2021/04/19 05:29:27;;;;;;;12.75;11.45;;;;;;;15.67;55.91;100310.95;2296865;86;25615;-82
2021/04/19 05:32:48;;;;;;;12.45;10.10;;;;;;;15.70;55.96;100321.47;2296936;86;25331;-81
2021/04/19 05:36:13;;;;;;;12.33;10.98;;;;;;;15.76;55.97;100319.27;2296995;86;25449;-81
2021/04/19 05:39:40;;;;;;;12.40;11.00;;;;;;;15.81;55.93;100317.54;2296960;86;25813;-78
2021/04/19 05:43:16;;;;;;;12.07;10.90;;;;;;;15.90;55.92;100312.30;2296035;86;25781;-80
2021/04/19 05:48:12;;;;;;;;;;;;;;;;;;;;;
2021/04/19 06:12:18;;;;;;;12.53;10.93;;;;;;;16.78;55.25;100308.30;2468485;79;25726;-81
2021/04/19 06:16:48;;;;;;;13.03;11.80;;;;;;;16.89;54.83;100310.45;2554491;77;31125;-81
2021/04/19 06:20:25;;;;;;;11.93;10.68;;;;;;;16.84;54.79;100315.73;2413618;81;25674;-80
2021/04/19 06:46:21;;;;;;;10.08;8.68;;;;;;;25.11;45.89;100309.06;2616328;74;25615;-80
2021/04/19 06:50:05;;;;;;;7.95;7.25;;;;;;;26.38;43.81;100309.28;2503488;78;25563;-79
2021/04/19 06:53:50;;;;;;;8.03;7.05;;;;;;;27.66;41.57;100323.16;2511614;78;25389;-87
2021/04/19 06:58:13;;;;;;;7.20;6.60;;;;;;;28.82;39.58;100333.02;2514499;76;25630;-81
2021/04/19 07:02:14;;;;;;;6.50;6.10;;;;;;;29.94;37.86;100338.53;2344495;83;25902;-78
2021/04/19 07:27:29;;;;;;;13.10;10.45;;;;;;;33.96;32.14;100345.37;2506116;78;27764;-84
2021/04/19 07:31:00;;;;;;;10.68;9.60;;;;;;;33.97;29.94;100341.68;2455741;78;25530;-84
2021/04/19 07:34:31;;;;;;;10.50;9.60;;;;;;;33.73;28.37;100340.81;2433233;79;25362;-82
2021/04/19 07:38:07;;;;;;;11.60;10.48;;;;;;;33.65;27.70;100341.84;2443540;79;25719;-82
2021/04/19 07:41:57;;;;;;;12.75;11.20;;;;;;;33.76;27.24;100339.23;2466013;79;25542;-76
2021/04/19 07:56:22;;;;;;;14.03;7.45;;;;;;;35.16;25.77;100334.33;2433715;78;25459;-81
2021/04/19 08:00:15;;;;;;;;;;;;;;;;;;;;;
2021/04/19 08:15:06;;;;;;;9.00;5.80;;;;;;;36.17;23.20;100346.41;2554481;77;25486;-79
2021/04/19 08:18:43;;;;;;;9.13;5.95;;;;;;;36.21;23.74;100340.22;2516233;78;26159;-84
2021/04/19 08:22:40;;;;;;;9.98;6.20;;;;;;;36.52;23.11;100345.77;2446296;80;25698;-86
2021/04/19 08:36:53;;;;;;;5.97;4.92;;;;;;;36.86;21.66;100341.87;2498172;77;25168;-77
2021/04/19 08:51:21;;;;;;;4.75;4.08;;;;;;;36.86;21.10;100332.37;2509235;77;25459;-80
2021/04/19 08:58:33;;;;;;;5.78;3.83;;;;;;;37.06;20.75;100332.01;2442438;79;26191;-78
2021/04/19 09:02:40;;;;;;;11.88;3.75;;;;;;;37.32;20.55;100341.04;2377422;81;25646;-76
2021/04/19 09:06:24;;;;;;;7.53;3.70;;;;;;;36.55;20.24;100337.37;2386426;81;25681;-80
2021/04/19 09:10:26;;;;;;;;;;;;;;;;;;;;;
2021/04/19 09:14:15;;;;;;;4.67;3.80;;;;;;;36.98;19.25;100334.52;2413572;81;25254;-81
2021/04/19 09:18:27;;;;;;;7.45;3.75;;;;;;;36.96;19.53;100331.06;2333329;84;25729;-80
2021/04/19 09:22:27;;;;;;;5.42;3.75;;;;;;;37.43;19.22;100322.39;2565081;77;25768;-81
2021/04/19 09:26:07;;;;;;;;;;;;;;;;;;;;;
2021/04/19 09:30:00;;;;;;;4.00;3.58;;;;;;;37.72;18.81;100329.31;2196786;88;25458;-81
2021/04/19 09:55:20;;;;;;;6.87;3.77;;;;;;;35.20;18.52;100303.31;2522813;77;28019;-77
2021/04/19 09:59:12;;;;;;;4.45;3.72;;;;;;;35.62;18.08;100308.94;2560549;75;25493;-76
2021/04/19 10:03:31;;;;;;;;;;;;;;;;;;;;;
2021/04/19 10:33:35;;;;;;;5.10;4.55;;;;;;;32.18;16.47;100286.39;2534778;77;25605;-79
2021/04/19 10:37:15;;;;;;;4.33;3.92;;;;;;;30.66;18.19;100271.53;2407731;81;25942;-79
2021/04/19 10:41:25;;;;;;;4.90;4.37;;;;;;;30.57;19.21;100271.12;2603658;76;25555;-76
2021/04/19 10:44:52;;;;;;;5.92;4.12;;;;;;;30.31;19.40;100273.20;2563399;77;25803;-78
2021/04/19 10:48:23;;;;;;;;;;;;;;;30.60;19.75;100270.07;2566650;77;25564;-78
2021/04/19 10:52:01;;;;;;;4.37;3.98;;;;;;;31.07;19.08;100274.83;2508376;78;25646;-77
2021/04/19 10:55:32;;;;;;;5.80;3.45;;;;;;;31.26;19.22;100269.52;2508068;78;25646;-79
2021/04/19 10:59:14;;;;;;;5.60;4.20;;;;;;;31.94;19.07;100274.09;2504169;78;25692;-78
2021/04/19 11:03:05;;;;;;;4.30;3.90;;;;;;;31.93;18.12;100262.94;2595655;76;25598;-77
2021/04/19 11:06:41;;;;;;;5.95;3.62;;;;;;;32.18;17.96;100261.26;2497214;78;25875;-79
2021/04/19 11:14:38;;;;;;;14.20;3.60;;;;;;;31.08;17.09;100257.22;2579808;75;25736;-76
2021/04/19 11:18:30;;;;;;;12.18;3.22;;;;;;;31.04;17.86;100261.94;2539273;76;25697;-77
2021/04/19 11:21:52;;;;;;;9.63;3.37;;;;;;;31.26;17.83;100252.02;2521922;77;26264;-76
2021/04/19 11:25:32;;;;;;;5.00;3.37;;;;;;;31.41;16.33;100273.07;2497536;78;25670;-79
2021/04/19 11:29:09;;;;;;;7.05;3.40;;;;;;;30.44;17.28;100259.86;2500398;78;25982;-77
2021/04/19 11:32:36;;;;;;;5.28;3.45;;;;;;;30.11;17.77;100256.89;2484450;78;25659;-76
2021/04/19 11:36:01;;;;;;;3.60;3.22;;;;;;;30.39;17.60;100261.49;2473978;79;25469;-78
2021/04/19 11:39:39;;;;;;;4.30;3.40;;;;;;;30.52;17.57;100252.20;2442580;79;25645;-79
2021/04/19 11:43:25;;;;;;;3.15;2.95;;;;;;;30.40;17.14;100253.80;2481742;78;25414;-77
2021/04/19 11:46:57;;;;;;;3.62;3.02;;;;;;;29.98;17.70;100251.86;2375802;81;25917;-77
2021/04/19 11:50:23;;;;;;;5.70;3.62;;;;;;;30.51;17.99;100248.66;2377615;81;25846;-78
2021/04/19 11:53:53;;;;;;;7.22;3.25;;;;;;;30.24;17.77;100247.16;2383414;81;25624;-77
2021/04/19 11:57:21;;;;;;;4.12;3.17;;;;;;;30.33;17.76;100250.62;2365687;82;25859;-77
2021/04/19 12:00:58;;;;;;;3.17;2.87;;;;;;;30.50;17.87;100252.28;2313368;84;25415;-79
2021/04/19 12:04:37;;;;;;;6.03;3.87;;;;;;;30.21;17.89;100250.52;2380320;81;25494;-78
2021/04/19 12:07:59;;;;;;;3.65;3.35;;;;;;;30.22;17.64;100245.52;2333962;83;26118;-76
2021/04/19 12:11:24;;;;;;;4.03;3.72;;;;;;;30.27;17.83;100246.09;2382990;82;25740;-77
2021/04/19 12:14:49;;;;;;;4.53;3.40;;;;;;;30.58;17.69;100241.07;2366165;81;25919;-77
2021/04/19 12:18:17;;;;;;;7.92;4.00;;;;;;;30.71;17.52;100239.80;2323580;82;25818;-78
2021/04/19 12:21:45;;;;;;;5.53;3.45;;;;;;;30.64;17.46;100236.63;2376129;81;25729;-78
2021/04/19 12:25:08;;;;;;;5.25;3.25;;;;;;;30.75;17.69;100229.25;2521386;77;25573;-76
2021/04/19 12:28:30;;;;;;;10.05;3.77;;;;;;;30.92;17.24;100234.95;2522846;77;25640;-78
2021/04/19 12:32:00;;;;;;;4.67;3.17;;;;;;;30.67;17.44;100225.67;2466985;78;25881;-78
2021/04/19 12:35:29;;;;;;;3.52;3.22;;;;;;;30.76;17.53;100214.86;2468028;78;25668;-76
2021/04/19 12:38:53;;;;;;;9.65;3.22;;;;;;;31.03;17.77;100205.50;2492891;77;25811;-78
2021/04/19 12:42:15;;;;;;;6.72;3.30;;;;;;;30.87;17.28;100208.79;2489528;78;25765;-75
2021/04/19 12:45:45;;;;;;;6.12;3.20;;;;;;;30.47;17.43;100208.08;2483999;78;25626;-78
2021/04/19 12:49:14;;;;;;;7.25;3.17;;;;;;;30.19;17.86;100205.37;2391921;82;25700;-77
2021/04/19 12:53:03;;;;;;;5.28;3.60;;;;;;;30.06;17.58;100197.14;2500327;78;25302;-76
2021/04/19 12:56:43;;;;;;;3.55;2.98;;;;;;;29.68;17.64;100203.46;2508375;78;25561;-78
2021/04/19 13:00:24;;;;;;;;;;;;;;;;;;;;;
2021/04/19 13:04:06;;;;;;;5.22;3.17;;;;;;;29.01;18.17;100196.06;2419024;80;25750;-80
2021/04/19 13:07:48;;;;;;;4.37;3.27;;;;;;;29.23;18.06;100199.28;2330560;83;25522;-77
2021/04/19 13:11:51;;;;;;;4.20;2.58;;;;;;;29.36;18.24;100197.64;2557556;76;27964;-78
2021/04/19 13:15:34;;;;;;;6.30;2.65;;;;;;;29.34;18.34;100182.55;2359270;81;26289;-77
2021/04/19 13:19:12;;;;;;;3.80;3.50;;;;;;;29.50;18.09;100186.09;2307127;85;25737;-77
2021/04/19 13:26:42;;;;;;;3.90;3.20;;;;;;;29.04;17.64;100170.40;2551754;77;25664;-77
2021/04/19 13:30:09;;;;;;;7.65;3.87;;;;;;;28.66;18.11;100173.38;2516138;78;25707;-77
2021/04/19 13:33:34;;;;;;;5.85;3.05;;;;;;;28.74;18.38;100176.48;2477026;78;25640;-78
2021/04/19 13:36:58;;;;;;;5.37;3.47;;;;;;;28.85;18.45;100175.89;2486892;78;25698;-79
2021/04/19 13:40:26;;;;;;;5.42;3.17;;;;;;;28.55;18.64;100163.20;2489903;78;25732;-78
2021/04/19 13:43:59;;;;;;;7.60;2.87;;;;;;;28.73;18.54;100164.52;2484746;78;25701;-77
2021/04/19 13:47:28;;;;;;;6.55;3.20;;;;;;;28.99;19.11;100159.01;2443154;79;25961;-77
2021/04/19 13:51:13;;;;;;;8.18;2.83;;;;;;;28.90;18.95;100171.14;2440886;79;25715;-78
2021/04/19 13:54:46;;;;;;;13.50;2.92;;;;;;;28.51;19.07;100169.69;2447751;79;25724;-76
2021/04/19 13:58:15;;;;;;;7.83;3.17;;;;;;;28.19;19.35;100160.67;2448052;79;34889;-79
2021/04/19 14:01:37;;;;;;;7.25;2.75;;;;;;;28.18;19.64;100158.92;2450101;79;26329;-79
2021/04/19 14:04:59;;;;;;;7.28;2.52;;;;;;;28.08;19.71;100163.03;2480051;79;26271;-78
2021/04/19 14:08:20;;;;;;;3.40;3.10;;;;;;;27.70;19.40;100153.80;2459811;79;25705;-78
2021/04/19 14:11:56;;;;;;;5.12;2.80;;;;;;;27.54;19.79;100159.08;2394530;81;25380;-78
2021/04/19 14:15:27;;;;;;;3.05;2.47;;;;;;;27.27;19.06;100158.61;2434330;80;25721;-78
2021/04/19 14:18:52;;;;;;;4.30;3.77;;;;;;;27.08;19.37;100145.25;2439826;79;25703;-79
2021/04/19 14:22:23;;;;;;;5.25;3.25;;;;;;;27.15;19.79;100141.36;2479308;79;25366;-76
2021/04/19 14:25:49;;;;;;;4.03;3.05;;;;;;;27.13;20.14;100149.06;2469574;79;25647;-76
2021/04/19 14:29:10;;;;;;;6.85;2.60;;;;;;;26.84;20.25;100140.61;2493695;78;25594;-77
2021/04/19 14:32:37;;;;;;;8.65;3.70;;;;;;;26.55;21.03;100144.63;2453673;78;25706;-75
2021/04/19 14:35:58;;;;;;;4.33;3.02;;;;;;;26.44;21.90;100138.42;2459943;79;25525;-79
2021/04/19 14:39:28;;;;;;;8.75;2.85;;;;;;;26.40;21.67;100139.50;2483272;79;25632;-77
2021/04/19 14:42:55;;;;;;;2.85;2.62;;;;;;;26.11;21.16;100136.80;2483242;79;26289;-77
2021/04/19 14:46:31;;;;;;;5.08;2.58;;;;;;;25.75;20.94;100133.89;2483271;78;25705;-79
2021/04/19 14:49:59;;;;;;;7.35;2.67;;;;;;;25.14;20.47;100133.31;2415063;81;25772;-74
2021/04/19 14:53:26;;;;;;;6.95;2.62;;;;;;;24.82;20.68;100135.45;2356444;84;25755;-78
2021/04/19 14:56:56;;;;;;;6.28;2.58;;;;;;;24.80;22.22;100132.42;2362583;82;25967;-73
2021/04/19 15:00:18;;;;;;;2.47;2.27;;;;;;;24.90;21.91;100133.33;2376241;82;25751;-79
2021/04/19 15:03:40;;;;;;;2.72;2.08;;;;;;;24.65;21.48;100126.77;2391742;81;26248;-74
2021/04/19 15:07:05;;;;;;;5.92;2.50;;;;;;;24.53;22.63;100129.89;2442080;79;25852;-78
2021/04/19 15:10:32;;;;;;;4.75;2.33;;;;;;;24.57;22.41;100143.53;2445144;79;25742;-74
2021/04/19 15:13:56;;;;;;;4.47;2.87;;;;;;;24.54;22.77;100135.66;2383904;82;25815;-79
2021/04/19 15:21:23;;;;;;;5.47;2.70;;;;;;;24.04;22.32;100130.36;2511375;77;25467;-74
2021/04/19 15:24:52;;;;;;;4.80;2.45;;;;;;;23.94;22.32;100140.46;2421465;81;25635;-78
2021/04/19 15:28:25;;;;;;;;;;;;;;;;;;;;;
2021/04/19 15:43:03;;;;;;;2.83;1.80;;;;;;;22.72;21.50;100124.48;2590897;76;25579;-77
2021/04/19 15:46:26;;;;;;;2.37;2.15;;;;;;;22.60;21.56;100131.89;2560373;77;25624;-77
2021/04/19 15:49:50;;;;;;;2.58;2.05;;;;;;;22.49;21.57;100127.83;2560444;77;25880;-79
2021/04/19 15:53:19;;;;;;;9.08;2.17;;;;;;;22.15;21.83;100128.80;2555761;77;25740;-77
2021/04/19 15:56:51;;;;;;;2.83;2.52;;;;;;;21.85;22.20;100122.51;2560409;77;25700;-77
2021/04/19 16:00:21;;;;;;;5.37;2.47;;;;;;;21.79;22.51;100120.88;2560788;77;25838;-77
2021/04/19 16:03:45;;;;;;;5.10;2.50;;;;;;;21.61;22.65;100118.27;2498723;77;25717;-78
2021/04/19 16:07:14;;;;;;;8.43;3.17;;;;;;;21.39;23.16;100108.64;2503780;77;25773;-77
2021/04/19 16:10:36;;;;;;;2.95;2.45;;;;;;;21.49;23.35;100106.62;2514055;78;25650;-76
2021/04/19 16:14:01;;;;;;;5.12;2.58;;;;;;;21.55;23.64;100105.16;2513936;77;25842;-78
2021/04/19 16:17:25;;;;;;;6.45;3.02;;;;;;;21.57;23.58;100109.11;2526684;77;25801;-78
2021/04/19 16:20:49;;;;;;;3.25;2.80;;;;;;;21.26;23.91;100103.19;2560636;77;25991;-77
2021/04/19 16:24:19;;;;;;;6.72;2.55;;;;;;;21.20;24.18;100102.05;2349616;83;25872;-76
2021/04/19 16:27:49;;;;;;;5.28;2.40;;;;;;;21.11;24.32;100095.17;2332078;82;25903;-73
2021/04/19 16:31:20;;;;;;;6.05;2.40;;;;;;;20.94;24.82;100109.28;2285473;86;25801;-79
2021/04/19 16:35:14;;;;;;;;;;;;;;;;;;;;;
2021/04/19 16:38:41;;;;;;;3.33;2.47;;;;;;;21.54;25.36;100103.88;2547170;76;25764;-77
2021/04/19 16:42:28;;;;;;;;;;;;;;;;;;;;;
2021/04/19 16:46:10;;;;;;;3.65;2.10;;;;;;;22.01;26.49;100108.37;2445275;80;25683;-74
2021/04/19 16:49:47;;;;;;;5.40;2.02;;;;;;;22.15;26.82;100112.87;2418081;80;25711;-77
2021/04/19 16:53:35;;;;;;;6.00;2.70;;;;;;;22.23;27.11;100103.34;2471609;79;25709;-77
2021/04/19 16:57:02;;;;;;;5.05;2.02;;;;;;;22.26;27.24;100104.59;2467440;80;25660;-78
2021/04/19 17:00:52;;;;;;;6.62;2.60;;;;;;;22.26;27.44;100108.11;2463478;79;25781;-73
2021/04/19 17:04:46;;;;;;;;;;;;;;;;;;;;;
2021/04/19 17:19:24;;;;;;;6.12;2.58;;;;;;;22.11;28.08;100107.20;2425272;80;31313;-83
2021/04/19 17:33:56;;;;;;;2.95;2.30;;;;;;;21.97;29.13;100106.69;2475899;78;30868;-75
2021/04/19 17:37:33;;;;;;;3.20;2.40;;;;;;;21.90;29.49;100111.30;2347726;82;25651;-75
2021/04/19 17:41:28;;;;;;;3.80;2.30;;;;;;;21.95;29.96;100116.04;2556449;77;30907;-78
2021/04/19 17:45:12;;;;;;;2.55;2.10;;;;;;;21.88;30.28;100111.35;2530684;78;25710;-74
2021/04/19 17:48:45;;;;;;;2.55;2.15;;;;;;;21.86;30.54;100111.84;2530894;78;26265;-78
2021/04/19 17:52:22;;;;;;;2.40;2.20;;;;;;;21.84;30.74;100119.45;2485190;78;25809;-79
2021/04/19 17:55:54;;;;;;;7.97;2.85;;;;;;;21.82;30.93;100117.28;2515308;78;25817;-82
2021/04/19 17:59:22;;;;;;;6.50;2.22;;;;;;;21.81;30.93;100115.09;2514428;78;25662;-81
2021/04/19 18:07:41;;;;;;;3.47;2.37;;;;;;;21.77;31.51;100116.09;2443080;80;25612;-82
2021/04/19 18:15:14;;;;;;;6.83;2.58;;;;;;;21.66;31.81;100113.69;2388884;82;26207;-80
2021/04/19 18:40:31;;;;;;;5.60;2.62;;;;;;;21.40;32.38;100122.80;2541907;77;31028;-79
2021/04/19 18:59:39;;;;;;;;;;;;;;;;;;;;;
2021/04/19 19:03:06;;;;;;;5.47;3.30;;;;;;;21.03;33.36;100139.55;2341330;83;25890;-83
2021/04/19 19:07:06;;;;;;;4.00;3.27;;;;;;;20.99;33.58;100136.53;2363670;82;25526;-86
2021/04/19 19:10:59;;;;;;;6.00;3.20;;;;;;;20.95;33.83;100134.87;2368112;81;25652;-86
2021/04/19 19:14:34;;;;;;;3.42;2.77;;;;;;;20.90;34.06;100133.66;2335304;83;25545;-84
2021/04/19 19:18:30;;;;;;;4.12;3.50;;;;;;;20.85;34.26;100134.20;2367288;82;25629;-90
2021/04/19 19:22:23;;;;;;;;;;;;;;;;;;;;;
2021/04/19 19:26:22;;;;;;;6.05;3.17;;;;;;;20.76;34.66;100129.13;2313941;85;25843;-87
2021/04/19 19:30:17;;;;;;;3.55;3.10;;;;;;;20.72;34.89;100131.41;2247031;86;25589;-90
2021/04/19 20:41:00;;;;;;;8.88;4.55;;;;;;;19.87;37.29;100105.75;2487090;77;25396;-82
2021/04/19 20:45:20;;;;;;;;;;;;;;;;;;;;;
2021/04/19 21:20:04;;;;;;;7.45;4.20;;;;;;;19.49;38.13;100096.72;2321401;84;26127;-90
2021/04/19 21:33:38;;;;;;;16.95;5.05;;;;;;;19.38;38.50;100101.33;2076375;92;25700;-85
2021/04/19 22:03:09;;;;;;;6.90;4.87;;;;;;;19.33;38.61;100175.84;2029789;92;25822;-86
2021/04/19 22:33:08;;;;;;;;;;;;;;;;;;;;;
2021/04/19 22:36:59;;;;;;;7.10;5.50;;;;;;;18.58;38.16;100105.59;2379341;80;25681;-86
2021/04/19 22:41:08;;;;;;;9.88;6.35;;;;;;;18.47;37.94;100095.63;2227696;87;25524;-84
2021/04/19 22:59:43;;;;;;;7.17;6.25;;;;;;;18.09;37.30;100083.34;2244657;83;25406;-80
2021/04/19 23:26:42;;;;;;;7.75;6.50;;;;;;;17.62;37.43;100080.75;2263580;85;25676;-85
2021/04/19 23:30:21;;;;;;;6.67;6.00;;;;;;;17.34;37.84;100049.81;2276994;84;25687;-83
2021/04/19 23:34:40;;;;;;;8.43;6.05;;;;;;;17.34;37.84;100049.81;2292323;84;25811;-77
2021/04/19 23:42:55;;;;;;;13.55;6.50;;;;;;;17.35;37.72;100071.34;2263907;85;25931;-88
2021/04/19 23:46:45;;;;;;;;;;;;;;;;;;;;;
